sensor_id;sensor_type;location;lat;lon;timestamp;pressure;altitude;pressure_sealevel;temperature;humidity
71772;BME280;59606;52.138;5.424;2023-07-30T00:00:44;100947.47;;;16.84;77.22
71772;BME280;59606;52.138;5.424;2023-07-30T00:03:11;100941.72;;;16.79;77.50
71772;BME280;59606;52.138;5.424;2023-07-30T00:05:38;100944.50;;;16.78;77.79
71772;BME280;59606;52.138;5.424;2023-07-30T00:08:04;100942.19;;;16.73;77.90
71772;BME280;59606;52.138;5.424;2023-07-30T00:10:31;100948.66;;;16.69;78.18
71772;BME280;59606;52.138;5.424;2023-07-30T00:12:57;100946.25;;;16.66;78.33
71772;BME280;59606;52.138;5.424;2023-07-30T00:15:24;100950.09;;;16.62;78.39
71772;BME280;59606;52.138;5.424;2023-07-30T00:17:50;100946.75;;;16.60;78.70
71772;BME280;59606;52.138;5.424;2023-07-30T00:20:17;100948.78;;;16.56;78.71
71772;BME280;59606;52.138;5.424;2023-07-30T00:22:43;100954.41;;;16.52;79.07
71772;BME280;59606;52.138;5.424;2023-07-30T00:25:10;100948.53;;;16.48;79.23
71772;BME280;59606;52.138;5.424;2023-07-30T00:27:37;100955.09;;;16.42;79.51
71772;BME280;59606;52.138;5.424;2023-07-30T00:30:04;100955.34;;;16.39;79.70
71772;BME280;59606;52.138;5.424;2023-07-30T00:32:30;100952.25;;;16.34;80.19
71772;BME280;59606;52.138;5.424;2023-07-30T00:34:57;100950.59;;;16.33;80.03
71772;BME280;59606;52.138;5.424;2023-07-30T00:37:24;100956.69;;;16.34;80.32
71772;BME280;59606;52.138;5.424;2023-07-30T00:39:50;100956.91;;;16.31;80.66
71772;BME280;59606;52.138;5.424;2023-07-30T00:42:16;100961.44;;;16.29;80.77
71772;BME280;59606;52.138;5.424;2023-07-30T00:44:43;100959.03;;;16.25;80.96
71772;BME280;59606;52.138;5.424;2023-07-30T00:47:10;100956.53;;;16.24;81.05
71772;BME280;59606;52.138;5.424;2023-07-30T00:49:37;100951.16;;;16.25;81.25
71772;BME280;59606;52.138;5.424;2023-07-30T00:52:05;100954.03;;;16.22;81.42
71772;BME280;59606;52.138;5.424;2023-07-30T00:54:32;100954.84;;;16.23;81.40
71772;BME280;59606;52.138;5.424;2023-07-30T00:57:00;100957.59;;;16.21;81.61
71772;BME280;59606;52.138;5.424;2023-07-30T00:59:27;100956.78;;;16.21;81.79
71772;BME280;59606;52.138;5.424;2023-07-30T01:01:55;100955.22;;;16.18;81.95
71772;BME280;59606;52.138;5.424;2023-07-30T01:04:23;100953.66;;;16.16;82.33
71772;BME280;59606;52.138;5.424;2023-07-30T01:06:50;100949.59;;;16.12;82.55
71772;BME280;59606;52.138;5.424;2023-07-30T01:09:16;100960.09;;;16.12;82.96
71772;BME280;59606;52.138;5.424;2023-07-30T01:11:44;100962.25;;;16.07;83.45
71772;BME280;59606;52.138;5.424;2023-07-30T01:14:12;100958.91;;;16.05;83.83
71772;BME280;59606;52.138;5.424;2023-07-30T01:16:41;100968.69;;;16.02;83.99
71772;BME280;59606;52.138;5.424;2023-07-30T01:19:09;100967.13;;;16.00;84.28
71772;BME280;59606;52.138;5.424;2023-07-30T01:21:36;100976.09;;;15.97;84.47
71772;BME280;59606;52.138;5.424;2023-07-30T01:24:04;100971.06;;;15.94;84.83
71772;BME280;59606;52.138;5.424;2023-07-30T01:26:35;100976.44;;;15.93;85.13
71772;BME280;59606;52.138;5.424;2023-07-30T01:29:10;100980.00;;;15.92;85.31
71772;BME280;59606;52.138;5.424;2023-07-30T01:31:39;100980.13;;;15.90;85.50
71772;BME280;59606;52.138;5.424;2023-07-30T01:34:07;100978.69;;;15.86;85.98
71772;BME280;59606;52.138;5.424;2023-07-30T01:36:37;100980.59;;;15.84;86.69
71772;BME280;59606;52.138;5.424;2023-07-30T01:39:04;100979.75;;;15.84;86.81
71772;BME280;59606;52.138;5.424;2023-07-30T01:41:32;100980.59;;;15.84;86.99
71772;BME280;59606;52.138;5.424;2023-07-30T01:43:58;100982.16;;;15.87;87.05
71772;BME280;59606;52.138;5.424;2023-07-30T01:46:25;100977.72;;;15.87;87.19
71772;BME280;59606;52.138;5.424;2023-07-30T01:48:51;100980.22;;;15.89;87.28
71772;BME280;59606;52.138;5.424;2023-07-30T01:51:18;100973.91;;;15.91;87.39
71772;BME280;59606;52.138;5.424;2023-07-30T01:53:44;100975.47;;;15.94;87.38
71772;BME280;59606;52.138;5.424;2023-07-30T01:56:11;100971.28;;;15.91;87.59
71772;BME280;59606;52.138;5.424;2023-07-30T01:58:37;100981.78;;;15.91;87.79
71772;BME280;59606;52.138;5.424;2023-07-30T02:01:04;100971.19;;;15.93;87.77
71772;BME280;59606;52.138;5.424;2023-07-30T02:03:30;100985.03;;;15.95;87.88
71772;BME280;59606;52.138;5.424;2023-07-30T02:05:57;100983.38;;;15.94;88.10
71772;BME280;59606;52.138;5.424;2023-07-30T02:08:23;100987.78;;;15.93;88.48
71772;BME280;59606;52.138;5.424;2023-07-30T02:10:59;100986.00;;;15.94;88.31
71772;BME280;59606;52.138;5.424;2023-07-30T02:13:26;100993.03;;;15.93;88.62
71772;BME280;59606;52.138;5.424;2023-07-30T02:15:52;100987.06;;;15.91;89.04
71772;BME280;59606;52.138;5.424;2023-07-30T02:18:19;100984.44;;;15.91;89.32
71772;BME280;59606;52.138;5.424;2023-07-30T02:20:45;100985.25;;;15.92;89.48
71772;BME280;59606;52.138;5.424;2023-07-30T02:23:14;100974.75;;;15.92;89.61
71772;BME280;59606;52.138;5.424;2023-07-30T02:25:44;100980.84;;;15.92;89.74
71772;BME280;59606;52.138;5.424;2023-07-30T02:28:11;100976.53;;;15.91;89.82
71772;BME280;59606;52.138;5.424;2023-07-30T02:30:40;100983.47;;;15.92;90.11
71772;BME280;59606;52.138;5.424;2023-07-30T02:33:07;100981.06;;;15.89;90.33
71772;BME280;59606;52.138;5.424;2023-07-30T02:35:33;100974.75;;;15.92;90.36
71772;BME280;59606;52.138;5.424;2023-07-30T02:38:00;100984.31;;;15.93;90.39
71772;BME280;59606;52.138;5.424;2023-07-30T02:40:27;100970.69;;;15.88;90.74
71772;BME280;59606;52.138;5.424;2023-07-30T02:42:53;100961.97;;;15.87;90.71
71772;BME280;59606;52.138;5.424;2023-07-30T02:45:20;100966.38;;;15.87;90.92
71772;BME280;59606;52.138;5.424;2023-07-30T02:47:46;100969.00;;;15.87;91.23
71772;BME280;59606;52.138;5.424;2023-07-30T02:50:13;100972.56;;;15.86;91.38
71772;BME280;59606;52.138;5.424;2023-07-30T02:52:39;100971.03;;;15.83;91.72
71772;BME280;59606;52.138;5.424;2023-07-30T02:55:06;100967.69;;;15.81;92.01
71772;BME280;59606;52.138;5.424;2023-07-30T02:57:32;100966.84;;;15.81;92.31
71772;BME280;59606;52.138;5.424;2023-07-30T02:59:59;100969.78;;;15.76;92.43
71772;BME280;59606;52.138;5.424;2023-07-30T03:02:25;100970.06;;;15.73;92.88
71772;BME280;59606;52.138;5.424;2023-07-30T03:04:52;100970.28;;;15.70;93.27
71772;BME280;59606;52.138;5.424;2023-07-30T03:07:22;100967.75;;;15.68;93.57
71772;BME280;59606;52.138;5.424;2023-07-30T03:09:49;100974.91;;;15.66;93.76
71772;BME280;59606;52.138;5.424;2023-07-30T03:12:15;100971.41;;;15.66;93.80
71772;BME280;59606;52.138;5.424;2023-07-30T03:14:42;100976.78;;;15.64;94.01
71772;BME280;59606;52.138;5.424;2023-07-30T03:17:08;100969.13;;;15.61;94.33
71772;BME280;59606;52.138;5.424;2023-07-30T03:19:35;100980.69;;;15.59;94.57
71772;BME280;59606;52.138;5.424;2023-07-30T03:22:01;100972.94;;;15.57;94.77
71772;BME280;59606;52.138;5.424;2023-07-30T03:24:27;100974.81;;;15.55;95.30
71772;BME280;59606;52.138;5.424;2023-07-30T03:26:54;100978.41;;;15.54;95.55
71772;BME280;59606;52.138;5.424;2023-07-30T03:29:20;100979.38;;;15.53;96.10
71772;BME280;59606;52.138;5.424;2023-07-30T03:31:47;100972.41;;;15.52;96.32
71772;BME280;59606;52.138;5.424;2023-07-30T03:34:13;100983.88;;;15.51;96.58
71772;BME280;59606;52.138;5.424;2023-07-30T03:36:40;100984.94;;;15.48;96.67
71772;BME280;59606;52.138;5.424;2023-07-30T03:39:06;100981.47;;;15.48;97.25
71772;BME280;59606;52.138;5.424;2023-07-30T03:41:33;100980.66;;;15.47;97.34
71772;BME280;59606;52.138;5.424;2023-07-30T03:44:02;100985.06;;;15.47;97.42
71772;BME280;59606;52.138;5.424;2023-07-30T03:46:28;100983.28;;;15.47;97.86
71772;BME280;59606;52.138;5.424;2023-07-30T03:48:55;100990.31;;;15.47;97.98
71772;BME280;59606;52.138;5.424;2023-07-30T03:51:21;100990.53;;;15.44;98.19
71772;BME280;59606;52.138;5.424;2023-07-30T03:53:48;100995.88;;;15.42;98.37
71772;BME280;59606;52.138;5.424;2023-07-30T03:56:15;100999.47;;;15.41;98.61
71772;BME280;59606;52.138;5.424;2023-07-30T03:58:41;100997.66;;;15.42;98.82
71772;BME280;59606;52.138;5.424;2023-07-30T04:01:08;100994.22;;;15.41;98.93
71772;BME280;59606;52.138;5.424;2023-07-30T04:03:35;100988.97;;;15.41;99.26
71772;BME280;59606;52.138;5.424;2023-07-30T04:06:02;100981.81;;;15.43;99.47
71772;BME280;59606;52.138;5.424;2023-07-30T04:08:28;100992.31;;;15.43;99.57
71772;BME280;59606;52.138;5.424;2023-07-30T04:10:55;100998.28;;;15.45;99.91
71772;BME280;59606;52.138;5.424;2023-07-30T04:13:21;100989.34;;;15.48;99.89
71772;BME280;59606;52.138;5.424;2023-07-30T04:15:48;100989.34;;;15.48;100.00
71772;BME280;59606;52.138;5.424;2023-07-30T04:18:15;100992.81;;;15.48;100.00
71772;BME280;59606;52.138;5.424;2023-07-30T04:20:41;100991.88;;;15.49;100.00
71772;BME280;59606;52.138;5.424;2023-07-30T04:23:07;100999.63;;;15.51;100.00
71772;BME280;59606;52.138;5.424;2023-07-30T04:25:34;101002.25;;;15.51;100.00
71772;BME280;59606;52.138;5.424;2023-07-30T04:28:00;101002.13;;;15.52;100.00
71772;BME280;59606;52.138;5.424;2023-07-30T04:30:27;100998.47;;;15.55;100.00
71772;BME280;59606;52.138;5.424;2023-07-30T04:32:54;100994.78;;;15.57;100.00
71772;BME280;59606;52.138;5.424;2023-07-30T04:35:20;101001.69;;;15.59;100.00
71772;BME280;59606;52.138;5.424;2023-07-30T04:37:47;101006.13;;;15.58;100.00
71772;BME280;59606;52.138;5.424;2023-07-30T04:40:13;101003.41;;;15.60;100.00
71772;BME280;59606;52.138;5.424;2023-07-30T04:42:40;101006.63;;;15.63;100.00
71772;BME280;59606;52.138;5.424;2023-07-30T04:45:06;101002.91;;;15.66;100.00
71772;BME280;59606;52.138;5.424;2023-07-30T04:47:33;101014.09;;;15.69;100.00
71772;BME280;59606;52.138;5.424;2023-07-30T04:50:00;101010.38;;;15.72;100.00
71772;BME280;59606;52.138;5.424;2023-07-30T04:52:26;101023.28;;;15.75;100.00
71772;BME280;59606;52.138;5.424;2023-07-30T04:54:53;101011.00;;;15.75;100.00
71772;BME280;59606;52.138;5.424;2023-07-30T04:57:19;101019.38;;;15.81;100.00
71772;BME280;59606;52.138;5.424;2023-07-30T04:59:46;101016.41;;;15.85;100.00
71772;BME280;59606;52.138;5.424;2023-07-30T05:02:12;101011.75;;;15.89;100.00
71772;BME280;59606;52.138;5.424;2023-07-30T05:04:39;101018.50;;;15.93;100.00
71772;BME280;59606;52.138;5.424;2023-07-30T05:07:05;101018.00;;;15.99;100.00
71772;BME280;59606;52.138;5.424;2023-07-30T05:09:32;101025.66;;;16.02;100.00
71772;BME280;59606;52.138;5.424;2023-07-30T05:11:58;101024.47;;;16.06;100.00
71772;BME280;59606;52.138;5.424;2023-07-30T05:14:25;101019.84;;;16.10;100.00
71772;BME280;59606;52.138;5.424;2023-07-30T05:16:51;101028.34;;;16.13;100.00
71772;BME280;59606;52.138;5.424;2023-07-30T05:19:18;101022.72;;;16.18;100.00
71772;BME280;59606;52.138;5.424;2023-07-30T05:21:44;101021.53;;;16.22;100.00
71772;BME280;59606;52.138;5.424;2023-07-30T05:24:11;101026.47;;;16.26;100.00
71772;BME280;59606;52.138;5.424;2023-07-30T05:26:37;101027.91;;;16.31;100.00
71772;BME280;59606;52.138;5.424;2023-07-30T05:29:04;101022.41;;;16.34;100.00
71772;BME280;59606;52.138;5.424;2023-07-30T05:31:30;101023.00;;;16.37;100.00
71772;BME280;59606;52.138;5.424;2023-07-30T05:33:57;101026.13;;;16.42;100.00
71772;BME280;59606;52.138;5.424;2023-07-30T05:36:23;101019.69;;;16.46;100.00
71772;BME280;59606;52.138;5.424;2023-07-30T05:38:50;101025.66;;;16.48;100.00
71772;BME280;59606;52.138;5.424;2023-07-30T05:41:16;101021.13;;;16.50;100.00
71772;BME280;59606;52.138;5.424;2023-07-30T05:43:43;101028.88;;;16.52;100.00
71772;BME280;59606;52.138;5.424;2023-07-30T05:46:09;101029.59;;;16.54;100.00
71772;BME280;59606;52.138;5.424;2023-07-30T05:48:36;101026.63;;;16.59;100.00
71772;BME280;59606;52.138;5.424;2023-07-30T05:51:02;101019.44;;;16.61;100.00
71772;BME280;59606;52.138;5.424;2023-07-30T05:53:29;101024.34;;;16.65;100.00
71772;BME280;59606;52.138;5.424;2023-07-30T05:55:56;101025.78;;;16.69;100.00
71772;BME280;59606;52.138;5.424;2023-07-30T05:58:22;101029.75;;;16.75;100.00
71772;BME280;59606;52.138;5.424;2023-07-30T06:00:49;101029.53;;;16.78;100.00
71772;BME280;59606;52.138;5.424;2023-07-30T06:03:16;101031.94;;;16.81;100.00
71772;BME280;59606;52.138;5.424;2023-07-30T06:05:42;101027.84;;;16.88;100.00
71772;BME280;59606;52.138;5.424;2023-07-30T06:08:09;101031.81;;;16.94;100.00
71772;BME280;59606;52.138;5.424;2023-07-30T06:10:39;101037.06;;;16.94;100.00
71772;BME280;59606;52.138;5.424;2023-07-30T06:13:07;101035.28;;;16.94;100.00
71772;BME280;59606;52.138;5.424;2023-07-30T06:15:33;101043.16;;;16.94;99.86
71772;BME280;59606;52.138;5.424;2023-07-30T06:18:01;101044.72;;;16.97;99.89
71772;BME280;59606;52.138;5.424;2023-07-30T06:20:29;101034.91;;;16.99;99.49
71772;BME280;59606;52.138;5.424;2023-07-30T06:22:55;101037.53;;;16.99;99.04
71772;BME280;59606;52.138;5.424;2023-07-30T06:25:22;101032.41;;;16.98;98.63
71772;BME280;59606;52.138;5.424;2023-07-30T06:27:48;101042.69;;;17.01;98.89
71772;BME280;59606;52.138;5.424;2023-07-30T06:30:15;101043.41;;;17.03;98.64
71772;BME280;59606;52.138;5.424;2023-07-30T06:32:41;101028.19;;;17.06;98.69
71772;BME280;59606;52.138;5.424;2023-07-30T06:35:08;101035.50;;;17.14;98.88
71772;BME280;59606;52.138;5.424;2023-07-30T06:37:34;101039.44;;;17.19;98.34
71772;BME280;59606;52.138;5.424;2023-07-30T06:40:01;101039.06;;;17.24;98.15
71772;BME280;59606;52.138;5.424;2023-07-30T06:42:32;101033.66;;;17.26;98.16
71772;BME280;59606;52.138;5.424;2023-07-30T06:44:59;101034.50;;;17.26;97.39
71772;BME280;59606;52.138;5.424;2023-07-30T06:47:26;101024.69;;;17.28;97.60
71772;BME280;59606;52.138;5.424;2023-07-30T06:49:52;101037.72;;;17.30;97.18
71772;BME280;59606;52.138;5.424;2023-07-30T06:52:19;101034.16;;;17.31;96.83
71772;BME280;59606;52.138;5.424;2023-07-30T06:54:46;101028.03;;;17.30;96.61
71772;BME280;59606;52.138;5.424;2023-07-30T06:57:13;101032.47;;;17.30;96.39
71772;BME280;59606;52.138;5.424;2023-07-30T06:59:39;101029.97;;;17.28;95.84
71772;BME280;59606;52.138;5.424;2023-07-30T07:02:06;101022.16;;;17.27;96.07
71772;BME280;59606;52.138;5.424;2023-07-30T07:04:32;101032.00;;;17.25;96.00
71772;BME280;59606;52.138;5.424;2023-07-30T07:06:59;101028.66;;;17.23;95.80
71772;BME280;59606;52.138;5.424;2023-07-30T07:09:26;101031.28;;;17.23;95.46
71772;BME280;59606;52.138;5.424;2023-07-30T07:11:52;101037.53;;;17.22;95.04
71772;BME280;59606;52.138;5.424;2023-07-30T07:14:19;101047.22;;;17.21;95.20
71772;BME280;59606;52.138;5.424;2023-07-30T07:16:45;101049.13;;;17.19;95.15
71772;BME280;59606;52.138;5.424;2023-07-30T07:19:12;101050.09;;;17.18;94.88
71772;BME280;59606;52.138;5.424;2023-07-30T07:21:38;101046.63;;;17.17;94.91
71772;BME280;59606;52.138;5.424;2023-07-30T07:24:05;101045.53;;;17.20;95.15
71772;BME280;59606;52.138;5.424;2023-07-30T07:26:31;101046.84;;;17.26;95.28
71772;BME280;59606;52.138;5.424;2023-07-30T07:28:58;101047.78;;;17.36;94.79
71772;BME280;59606;52.138;5.424;2023-07-30T07:31:24;101045.72;;;17.39;93.96
71772;BME280;59606;52.138;5.424;2023-07-30T07:33:51;101057.00;;;17.41;93.27
71772;BME280;59606;52.138;5.424;2023-07-30T07:36:17;101040.47;;;17.51;93.47
71772;BME280;59606;52.138;5.424;2023-07-30T07:38:44;101042.81;;;17.65;92.95
71772;BME280;59606;52.138;5.424;2023-07-30T07:41:14;101042.78;;;17.76;91.89
71772;BME280;59606;52.138;5.424;2023-07-30T07:43:46;101045.06;;;17.81;91.46
71772;BME280;59606;52.138;5.424;2023-07-30T07:46:13;101039.41;;;17.85;89.67
71772;BME280;59606;52.138;5.424;2023-07-30T07:48:40;101047.75;;;17.90;89.97
71772;BME280;59606;52.138;5.424;2023-07-30T07:51:08;101045.91;;;18.02;90.40
71772;BME280;59606;52.138;5.424;2023-07-30T07:53:35;101044.19;;;18.12;89.99
71772;BME280;59606;52.138;5.424;2023-07-30T07:56:02;101053.25;;;18.20;88.64
71772;BME280;59606;52.138;5.424;2023-07-30T07:58:29;101048.69;;;18.22;87.57
71772;BME280;59606;52.138;5.424;2023-07-30T08:00:56;101065.59;;;18.19;87.98
71772;BME280;59606;52.138;5.424;2023-07-30T08:03:23;101061.81;;;18.12;87.44
71772;BME280;59606;52.138;5.424;2023-07-30T08:05:50;101048.47;;;18.13;87.99
71772;BME280;59606;52.138;5.424;2023-07-30T08:08:17;101048.56;;;18.23;87.30
71772;BME280;59606;52.138;5.424;2023-07-30T08:10:43;101055.63;;;18.44;86.31
71772;BME280;59606;52.138;5.424;2023-07-30T08:13:13;101051.97;;;18.56;85.32
71772;BME280;59606;52.138;5.424;2023-07-30T08:15:40;101052.69;;;18.58;85.67
71772;BME280;59606;52.138;5.424;2023-07-30T08:18:06;101061.78;;;18.54;84.94
71772;BME280;59606;52.138;5.424;2023-07-30T08:20:33;101051.50;;;18.51;84.70
71772;BME280;59606;52.138;5.424;2023-07-30T08:22:59;101054.84;;;18.53;85.88
71772;BME280;59606;52.138;5.424;2023-07-30T08:25:26;101050.81;;;18.49;85.64
71772;BME280;59606;52.138;5.424;2023-07-30T08:27:52;101050.34;;;18.44;84.01
71772;BME280;59606;52.138;5.424;2023-07-30T08:30:19;101042.56;;;18.42;84.42
71772;BME280;59606;52.138;5.424;2023-07-30T08:32:46;101043.25;;;18.44;84.61
71772;BME280;59606;52.138;5.424;2023-07-30T08:35:12;101040.31;;;18.37;84.78
71772;BME280;59606;52.138;5.424;2023-07-30T08:37:39;101036.91;;;18.26;85.37
71772;BME280;59606;52.138;5.424;2023-07-30T08:40:06;101036.75;;;18.18;86.03
71772;BME280;59606;52.138;5.424;2023-07-30T08:42:32;101054.16;;;18.09;86.57
71772;BME280;59606;52.138;5.424;2023-07-30T08:44:59;101053.56;;;18.05;86.29
71772;BME280;59606;52.138;5.424;2023-07-30T08:47:26;101057.50;;;18.11;86.45
71772;BME280;59606;52.138;5.424;2023-07-30T08:49:52;101060.06;;;18.22;86.74
71772;BME280;59606;52.138;5.424;2023-07-30T08:52:20;101058.75;;;18.28;84.73
71772;BME280;59606;52.138;5.424;2023-07-30T08:54:49;101065.81;;;18.48;82.75
71772;BME280;59606;52.138;5.424;2023-07-30T08:57:18;101058.91;;;18.57;79.42
71772;BME280;59606;52.138;5.424;2023-07-30T08:59:56;101053.91;;;18.75;79.77
71772;BME280;59606;52.138;5.424;2023-07-30T09:02:30;101055.81;;;19.03;80.25
71772;BME280;59606;52.138;5.424;2023-07-30T09:05:00;101049.75;;;19.22;79.49
71772;BME280;59606;52.138;5.424;2023-07-30T09:07:29;101052.00;;;19.27;79.44
71772;BME280;59606;52.138;5.424;2023-07-30T09:09:55;101053.25;;;19.33;80.17
71772;BME280;59606;52.138;5.424;2023-07-30T09:12:29;101053.38;;;19.31;79.22
71772;BME280;59606;52.138;5.424;2023-07-30T09:14:57;101054.91;;;19.24;78.72
71772;BME280;59606;52.138;5.424;2023-07-30T09:17:24;101053.09;;;19.24;79.28
71772;BME280;59606;52.138;5.424;2023-07-30T09:19:52;101054.38;;;19.30;79.58
71772;BME280;59606;52.138;5.424;2023-07-30T09:22:29;101051.88;;;19.28;77.63
71772;BME280;59606;52.138;5.424;2023-07-30T09:24:56;101058.09;;;19.27;78.67
71772;BME280;59606;52.138;5.424;2023-07-30T09:27:25;101085.34;;;19.28;78.55
71772;BME280;59606;52.138;5.424;2023-07-30T09:29:54;101075.63;;;19.19;78.38
71772;BME280;59606;52.138;5.424;2023-07-30T09:32:29;101076.97;;;19.13;78.60
71772;BME280;59606;52.138;5.424;2023-07-30T09:35:04;101077.81;;;19.14;78.87
71772;BME280;59606;52.138;5.424;2023-07-30T09:37:33;101083.25;;;19.12;78.40
71772;BME280;59606;52.138;5.424;2023-07-30T09:40:02;101089.03;;;19.06;77.07
71772;BME280;59606;52.138;5.424;2023-07-30T09:42:30;101090.97;;;19.04;78.19
71772;BME280;59606;52.138;5.424;2023-07-30T09:44:58;101092.00;;;19.13;77.64
71772;BME280;59606;52.138;5.424;2023-07-30T09:47:26;101089.50;;;19.21;76.19
71772;BME280;59606;52.138;5.424;2023-07-30T09:49:54;101086.94;;;19.50;75.71
71772;BME280;59606;52.138;5.424;2023-07-30T09:52:21;101089.78;;;19.68;74.50
71772;BME280;59606;52.138;5.424;2023-07-30T09:54:52;101090.91;;;19.65;74.03
71772;BME280;59606;52.138;5.424;2023-07-30T09:57:18;101094.91;;;19.60;72.54
71772;BME280;59606;52.138;5.424;2023-07-30T09:59:45;101091.16;;;19.62;73.88
71772;BME280;59606;52.138;5.424;2023-07-30T10:02:12;101104.13;;;19.75;73.35
71772;BME280;59606;52.138;5.424;2023-07-30T10:04:43;101106.69;;;20.06;73.24
71772;BME280;59606;52.138;5.424;2023-07-30T10:07:15;101105.25;;;20.31;71.73
71772;BME280;59606;52.138;5.424;2023-07-30T10:09:43;101108.75;;;20.51;71.88
71772;BME280;59606;52.138;5.424;2023-07-30T10:12:21;101100.19;;;20.76;70.66
71772;BME280;59606;52.138;5.424;2023-07-30T10:14:50;101103.44;;;21.07;66.14
71772;BME280;59606;52.138;5.424;2023-07-30T10:17:17;101109.06;;;21.22;68.19
71772;BME280;59606;52.138;5.424;2023-07-30T10:19:48;101117.25;;;21.29;63.94
71772;BME280;59606;52.138;5.424;2023-07-30T10:24:59;101110.28;;;21.37;63.59
71772;BME280;59606;52.138;5.424;2023-07-30T10:27:28;101117.50;;;21.45;61.67
71772;BME280;59606;52.138;5.424;2023-07-30T10:30:09;101119.16;;;21.09;61.15
71772;BME280;59606;52.138;5.424;2023-07-30T10:35:41;101119.97;;;20.72;62.31
71772;BME280;59606;52.138;5.424;2023-07-30T10:38:30;101123.31;;;20.84;62.90
71772;BME280;59606;52.138;5.424;2023-07-30T10:41:06;101121.75;;;20.91;63.47
71772;BME280;59606;52.138;5.424;2023-07-30T10:43:41;101120.63;;;20.93;63.79
71772;BME280;59606;52.138;5.424;2023-07-30T10:46:13;101119.00;;;20.83;63.55
71772;BME280;59606;52.138;5.424;2023-07-30T10:48:41;101128.38;;;20.67;62.52
71772;BME280;59606;52.138;5.424;2023-07-30T10:51:11;101123.53;;;20.53;63.76
71772;BME280;59606;52.138;5.424;2023-07-30T10:53:37;101129.38;;;20.57;65.05
71772;BME280;59606;52.138;5.424;2023-07-30T10:56:06;101124.41;;;20.91;63.52
71772;BME280;59606;52.138;5.424;2023-07-30T10:58:34;101140.56;;;21.25;64.17
71772;BME280;59606;52.138;5.424;2023-07-30T11:01:03;101118.78;;;21.31;61.53
71772;BME280;59606;52.138;5.424;2023-07-30T11:03:30;101131.91;;;21.33;61.81
71772;BME280;59606;52.138;5.424;2023-07-30T11:05:59;101126.91;;;21.30;59.44
71772;BME280;59606;52.138;5.424;2023-07-30T11:08:34;101137.13;;;21.52;59.58
71772;BME280;59606;52.138;5.424;2023-07-30T11:11:01;101126.81;;;21.77;57.30
71772;BME280;59606;52.138;5.424;2023-07-30T11:13:28;101127.63;;;21.77;56.90
71772;BME280;59606;52.138;5.424;2023-07-30T11:15:55;101139.47;;;21.55;56.63
71772;BME280;59606;52.138;5.424;2023-07-30T11:18:21;101132.03;;;21.41;58.64
71772;BME280;59606;52.138;5.424;2023-07-30T11:20:48;101131.91;;;21.33;58.80
71772;BME280;59606;52.138;5.424;2023-07-30T11:23:20;101146.13;;;21.32;57.91
71772;BME280;59606;52.138;5.424;2023-07-30T11:25:48;101150.88;;;21.28;57.67
71772;BME280;59606;52.138;5.424;2023-07-30T11:28:32;101154.28;;;21.21;58.12
71772;BME280;59606;52.138;5.424;2023-07-30T11:33:41;101149.34;;;21.35;58.07
71772;BME280;59606;52.138;5.424;2023-07-30T11:36:10;101156.88;;;21.40;59.90
71772;BME280;59606;52.138;5.424;2023-07-30T11:38:38;101161.97;;;21.51;58.56
71772;BME280;59606;52.138;5.424;2023-07-30T11:41:06;101162.28;;;21.48;56.92
71772;BME280;59606;52.138;5.424;2023-07-30T11:43:37;101156.19;;;21.38;57.34
71772;BME280;59606;52.138;5.424;2023-07-30T11:46:11;101151.41;;;21.41;56.94
71772;BME280;59606;52.138;5.424;2023-07-30T11:48:40;101163.16;;;21.67;58.15
71772;BME280;59606;52.138;5.424;2023-07-30T11:51:06;101160.06;;;21.89;61.46
71772;BME280;59606;52.138;5.424;2023-07-30T11:56:23;101175.50;;;21.76;57.16
71772;BME280;59606;52.138;5.424;2023-07-30T11:58:54;101157.94;;;21.75;57.89
71772;BME280;59606;52.138;5.424;2023-07-30T12:01:23;101153.56;;;21.83;58.60
71772;BME280;59606;52.138;5.424;2023-07-30T12:03:50;101158.72;;;22.03;57.20
71772;BME280;59606;52.138;5.424;2023-07-30T12:06:16;101165.75;;;22.22;58.99
71772;BME280;59606;52.138;5.424;2023-07-30T12:08:43;101165.28;;;22.44;57.88
71772;BME280;59606;52.138;5.424;2023-07-30T12:11:10;101172.50;;;22.34;54.72
71772;BME280;59606;52.138;5.424;2023-07-30T12:13:46;101177.06;;;21.96;56.77
71772;BME280;59606;52.138;5.424;2023-07-30T12:16:13;101181.22;;;21.81;57.56
71772;BME280;59606;52.138;5.424;2023-07-30T12:18:40;101182.22;;;21.80;57.46
71772;BME280;59606;52.138;5.424;2023-07-30T12:21:07;101180.19;;;22.09;57.73
71772;BME280;59606;52.138;5.424;2023-07-30T12:23:34;101179.59;;;22.16;55.99
71772;BME280;59606;52.138;5.424;2023-07-30T12:26:02;101163.75;;;22.42;57.26
71772;BME280;59606;52.138;5.424;2023-07-30T12:28:32;101172.28;;;22.71;56.39
71772;BME280;59606;52.138;5.424;2023-07-30T12:30:59;101167.34;;;22.94;55.01
71772;BME280;59606;52.138;5.424;2023-07-30T12:33:26;101169.75;;;23.14;53.24
71772;BME280;59606;52.138;5.424;2023-07-30T12:35:53;101160.63;;;23.16;54.16
71772;BME280;59606;52.138;5.424;2023-07-30T12:38:19;101173.66;;;23.27;55.04
71772;BME280;59606;52.138;5.424;2023-07-30T12:40:46;101167.84;;;23.24;51.18
71772;BME280;59606;52.138;5.424;2023-07-30T12:43:13;101175.44;;;22.93;52.81
71772;BME280;59606;52.138;5.424;2023-07-30T12:45:39;101187.03;;;22.92;53.28
71772;BME280;59606;52.138;5.424;2023-07-30T12:48:06;101180.84;;;23.09;53.02
71772;BME280;59606;52.138;5.424;2023-07-30T12:50:34;101181.34;;;23.04;50.71
71772;BME280;59606;52.138;5.424;2023-07-30T12:53:01;101179.00;;;23.01;52.35
71772;BME280;59606;52.138;5.424;2023-07-30T12:55:27;101186.22;;;22.91;53.18
71772;BME280;59606;52.138;5.424;2023-07-30T12:57:54;101185.66;;;22.62;52.36
71772;BME280;59606;52.138;5.424;2023-07-30T13:00:20;101186.22;;;22.47;54.28